sensor_id;sensor_type;location;lat;lon;timestamp;P1;durP1;ratioP1;P2;durP2;ratioP2
78686;SDS011;68002;52.310;6.990;2023-05-02T00:01:53;41.23;;;19.90;;
78686;SDS011;68002;52.310;6.990;2023-05-02T00:04:18;43.87;;;20.23;;
78686;SDS011;68002;52.310;6.990;2023-05-02T00:06:44;45.33;;;22.57;;
78686;SDS011;68002;52.310;6.990;2023-05-02T00:09:09;40.83;;;19.30;;
78686;SDS011;68002;52.310;6.990;2023-05-02T00:11:34;48.80;;;21.10;;
78686;SDS011;68002;52.310;6.990;2023-05-02T00:13:59;40.40;;;19.03;;
78686;SDS011;68002;52.310;6.990;2023-05-02T00:16:24;39.33;;;17.87;;
78686;SDS011;68002;52.310;6.990;2023-05-02T00:18:50;44.70;;;19.30;;
78686;SDS011;68002;52.310;6.990;2023-05-02T00:21:15;39.03;;;17.73;;
78686;SDS011;68002;52.310;6.990;2023-05-02T00:23:40;41.47;;;18.20;;
78686;SDS011;68002;52.310;6.990;2023-05-02T00:26:08;37.73;;;18.37;;
78686;SDS011;68002;52.310;6.990;2023-05-02T00:28:34;42.42;;;18.48;;
78686;SDS011;68002;52.310;6.990;2023-05-02T00:30:59;37.73;;;16.67;;
78686;SDS011;68002;52.310;6.990;2023-05-02T00:33:24;39.63;;;16.97;;
78686;SDS011;68002;52.310;6.990;2023-05-02T00:35:49;37.90;;;16.97;;
78686;SDS011;68002;52.310;6.990;2023-05-02T00:38:15;37.53;;;16.73;;
78686;SDS011;68002;52.310;6.990;2023-05-02T00:40:44;40.47;;;17.67;;
78686;SDS011;68002;52.310;6.990;2023-05-02T00:43:10;35.00;;;16.98;;
78686;SDS011;68002;52.310;6.990;2023-05-02T00:45:35;32.83;;;15.90;;
78686;SDS011;68002;52.310;6.990;2023-05-02T00:48:02;36.60;;;15.45;;
78686;SDS011;68002;52.310;6.990;2023-05-02T00:50:27;34.08;;;16.42;;
78686;SDS011;68002;52.310;6.990;2023-05-02T00:52:54;33.88;;;15.50;;
78686;SDS011;68002;52.310;6.990;2023-05-02T00:55:19;32.33;;;14.73;;
78686;SDS011;68002;52.310;6.990;2023-05-02T00:57:44;30.67;;;13.83;;
78686;SDS011;68002;52.310;6.990;2023-05-02T01:00:10;31.10;;;14.50;;
78686;SDS011;68002;52.310;6.990;2023-05-02T01:05:13;26.48;;;11.52;;
78686;SDS011;68002;52.310;6.990;2023-05-02T01:15:45;26.77;;;11.63;;
78686;SDS011;68002;52.310;6.990;2023-05-02T01:18:12;25.98;;;12.60;;
78686;SDS011;68002;52.310;6.990;2023-05-02T01:20:41;24.30;;;10.95;;
78686;SDS011;68002;52.310;6.990;2023-05-02T01:23:22;25.20;;;11.15;;
78686;SDS011;68002;52.310;6.990;2023-05-02T01:25:59;21.25;;;9.95;;
78686;SDS011;68002;52.310;6.990;2023-05-02T01:31:24;22.23;;;10.35;;
78686;SDS011;68002;52.310;6.990;2023-05-02T01:33:50;23.92;;;9.82;;
78686;SDS011;68002;52.310;6.990;2023-05-02T01:36:17;23.02;;;10.18;;
78686;SDS011;68002;52.310;6.990;2023-05-02T01:38:44;29.75;;;11.48;;
78686;SDS011;68002;52.310;6.990;2023-05-02T01:41:10;20.13;;;9.98;;
78686;SDS011;68002;52.310;6.990;2023-05-02T01:43:36;20.77;;;9.38;;
78686;SDS011;68002;52.310;6.990;2023-05-02T01:46:03;23.30;;;9.98;;
78686;SDS011;68002;52.310;6.990;2023-05-02T01:48:30;22.42;;;9.55;;
78686;SDS011;68002;52.310;6.990;2023-05-02T01:50:56;22.63;;;10.15;;
78686;SDS011;68002;52.310;6.990;2023-05-02T01:53:23;20.73;;;9.60;;
78686;SDS011;68002;52.310;6.990;2023-05-02T01:55:50;22.40;;;9.73;;
78686;SDS011;68002;52.310;6.990;2023-05-02T01:58:18;25.02;;;9.85;;
78686;SDS011;68002;52.310;6.990;2023-05-02T02:00:45;17.27;;;7.75;;
78686;SDS011;68002;52.310;6.990;2023-05-02T02:03:11;21.15;;;8.90;;
78686;SDS011;68002;52.310;6.990;2023-05-02T02:05:37;25.58;;;9.50;;
78686;SDS011;68002;52.310;6.990;2023-05-02T02:08:03;24.75;;;9.43;;
78686;SDS011;68002;52.310;6.990;2023-05-02T02:10:31;18.90;;;7.88;;
78686;SDS011;68002;52.310;6.990;2023-05-02T02:13:05;21.38;;;9.32;;
78686;SDS011;68002;52.310;6.990;2023-05-02T02:15:37;18.75;;;7.70;;
78686;SDS011;68002;52.310;6.990;2023-05-02T02:18:08;16.83;;;7.40;;
78686;SDS011;68002;52.310;6.990;2023-05-02T02:20:37;13.15;;;6.85;;
78686;SDS011;68002;52.310;6.990;2023-05-02T02:23:05;15.35;;;6.40;;
78686;SDS011;68002;52.310;6.990;2023-05-02T02:25:32;13.27;;;6.70;;
78686;SDS011;68002;52.310;6.990;2023-05-02T02:27:58;10.52;;;5.00;;
78686;SDS011;68002;52.310;6.990;2023-05-02T02:30:24;10.48;;;4.65;;
78686;SDS011;68002;52.310;6.990;2023-05-02T02:32:50;11.33;;;4.37;;
78686;SDS011;68002;52.310;6.990;2023-05-02T02:35:15;10.83;;;4.50;;
78686;SDS011;68002;52.310;6.990;2023-05-02T02:37:43;7.60;;;3.57;;
78686;SDS011;68002;52.310;6.990;2023-05-02T02:42:44;8.35;;;3.67;;
78686;SDS011;68002;52.310;6.990;2023-05-02T02:45:35;8.77;;;4.13;;
78686;SDS011;68002;52.310;6.990;2023-05-02T02:51:12;5.78;;;3.38;;
78686;SDS011;68002;52.310;6.990;2023-05-02T02:53:48;9.23;;;3.88;;
78686;SDS011;68002;52.310;6.990;2023-05-02T02:56:21;7.80;;;3.50;;
78686;SDS011;68002;52.310;6.990;2023-05-02T03:01:26;7.32;;;3.40;;
78686;SDS011;68002;52.310;6.990;2023-05-02T03:03:55;6.28;;;3.22;;
78686;SDS011;68002;52.310;6.990;2023-05-02T03:06:21;9.93;;;3.42;;
78686;SDS011;68002;52.310;6.990;2023-05-02T03:08:47;7.85;;;3.65;;
78686;SDS011;68002;52.310;6.990;2023-05-02T03:11:12;7.93;;;3.73;;
78686;SDS011;68002;52.310;6.990;2023-05-02T03:13:38;7.53;;;3.87;;
78686;SDS011;68002;52.310;6.990;2023-05-02T03:16:26;7.83;;;2.90;;
78686;SDS011;68002;52.310;6.990;2023-05-02T03:18:56;8.52;;;3.15;;
78686;SDS011;68002;52.310;6.990;2023-05-02T03:21:21;11.63;;;5.63;;
78686;SDS011;68002;52.310;6.990;2023-05-02T03:23:46;6.07;;;3.23;;
78686;SDS011;68002;52.310;6.990;2023-05-02T03:26:12;8.23;;;3.70;;
78686;SDS011;68002;52.310;6.990;2023-05-02T03:28:37;7.53;;;3.07;;
78686;SDS011;68002;52.310;6.990;2023-05-02T03:31:02;7.20;;;3.07;;
78686;SDS011;68002;52.310;6.990;2023-05-02T03:33:27;7.03;;;3.27;;
78686;SDS011;68002;52.310;6.990;2023-05-02T03:35:53;7.37;;;4.00;;
78686;SDS011;68002;52.310;6.990;2023-05-02T03:38:18;11.27;;;3.23;;
78686;SDS011;68002;52.310;6.990;2023-05-02T03:40:43;7.23;;;3.13;;
78686;SDS011;68002;52.310;6.990;2023-05-02T03:43:08;6.53;;;3.30;;
78686;SDS011;68002;52.310;6.990;2023-05-02T03:45:33;7.33;;;2.93;;
78686;SDS011;68002;52.310;6.990;2023-05-02T03:47:59;8.10;;;2.73;;
78686;SDS011;68002;52.310;6.990;2023-05-02T03:50:24;7.20;;;3.33;;
78686;SDS011;68002;52.310;6.990;2023-05-02T03:52:49;6.13;;;3.80;;
78686;SDS011;68002;52.310;6.990;2023-05-02T03:55:14;4.50;;;2.47;;
78686;SDS011;68002;52.310;6.990;2023-05-02T03:57:40;7.83;;;2.50;;
78686;SDS011;68002;52.310;6.990;2023-05-02T04:00:05;7.50;;;2.57;;
78686;SDS011;68002;52.310;6.990;2023-05-02T04:02:31;7.43;;;3.60;;
78686;SDS011;68002;52.310;6.990;2023-05-02T04:04:56;6.50;;;2.77;;
78686;SDS011;68002;52.310;6.990;2023-05-02T04:07:21;6.70;;;2.97;;
78686;SDS011;68002;52.310;6.990;2023-05-02T04:09:47;5.63;;;3.15;;
78686;SDS011;68002;52.310;6.990;2023-05-02T04:12:14;6.50;;;2.97;;
78686;SDS011;68002;52.310;6.990;2023-05-02T04:14:39;5.53;;;2.55;;
78686;SDS011;68002;52.310;6.990;2023-05-02T04:17:04;7.60;;;3.47;;
78686;SDS011;68002;52.310;6.990;2023-05-02T04:19:30;4.80;;;2.63;;
78686;SDS011;68002;52.310;6.990;2023-05-02T04:21:55;5.13;;;2.90;;
78686;SDS011;68002;52.310;6.990;2023-05-02T04:24:20;6.00;;;3.17;;
78686;SDS011;68002;52.310;6.990;2023-05-02T04:26:46;7.90;;;2.38;;
78686;SDS011;68002;52.310;6.990;2023-05-02T04:29:11;6.33;;;3.03;;
78686;SDS011;68002;52.310;6.990;2023-05-02T04:31:36;8.13;;;2.97;;
78686;SDS011;68002;52.310;6.990;2023-05-02T04:34:02;7.90;;;2.83;;
78686;SDS011;68002;52.310;6.990;2023-05-02T04:36:27;7.57;;;3.00;;
78686;SDS011;68002;52.310;6.990;2023-05-02T04:38:52;6.73;;;2.60;;
78686;SDS011;68002;52.310;6.990;2023-05-02T04:41:18;5.07;;;2.65;;
78686;SDS011;68002;52.310;6.990;2023-05-02T04:43:43;4.43;;;2.40;;
78686;SDS011;68002;52.310;6.990;2023-05-02T04:46:08;5.67;;;2.60;;
78686;SDS011;68002;52.310;6.990;2023-05-02T04:48:33;3.87;;;1.90;;
78686;SDS011;68002;52.310;6.990;2023-05-02T04:50:59;4.50;;;2.20;;
78686;SDS011;68002;52.310;6.990;2023-05-02T04:53:24;7.07;;;2.90;;
78686;SDS011;68002;52.310;6.990;2023-05-02T04:55:49;7.30;;;2.90;;
78686;SDS011;68002;52.310;6.990;2023-05-02T04:58:14;7.10;;;3.20;;
78686;SDS011;68002;52.310;6.990;2023-05-02T05:00:40;7.13;;;2.40;;
78686;SDS011;68002;52.310;6.990;2023-05-02T05:03:05;7.97;;;3.60;;
78686;SDS011;68002;52.310;6.990;2023-05-02T05:05:30;9.27;;;3.00;;
78686;SDS011;68002;52.310;6.990;2023-05-02T05:07:56;10.73;;;4.35;;
78686;SDS011;68002;52.310;6.990;2023-05-02T05:10:21;10.30;;;4.27;;
78686;SDS011;68002;52.310;6.990;2023-05-02T05:12:46;11.40;;;4.43;;
78686;SDS011;68002;52.310;6.990;2023-05-02T05:15:11;12.83;;;4.50;;
78686;SDS011;68002;52.310;6.990;2023-05-02T05:17:37;13.43;;;3.63;;
78686;SDS011;68002;52.310;6.990;2023-05-02T05:20:02;12.27;;;3.77;;
78686;SDS011;68002;52.310;6.990;2023-05-02T05:22:28;9.57;;;3.28;;
78686;SDS011;68002;52.310;6.990;2023-05-02T05:24:53;12.87;;;4.17;;
78686;SDS011;68002;52.310;6.990;2023-05-02T05:27:18;14.07;;;4.38;;
78686;SDS011;68002;52.310;6.990;2023-05-02T05:29:44;9.70;;;4.50;;
78686;SDS011;68002;52.310;6.990;2023-05-02T05:32:09;9.33;;;3.30;;
78686;SDS011;68002;52.310;6.990;2023-05-02T05:34:34;8.63;;;2.77;;
78686;SDS011;68002;52.310;6.990;2023-05-02T05:36:59;9.63;;;3.07;;
78686;SDS011;68002;52.310;6.990;2023-05-02T05:39:25;10.57;;;3.00;;
78686;SDS011;68002;52.310;6.990;2023-05-02T05:41:50;15.33;;;3.60;;
78686;SDS011;68002;52.310;6.990;2023-05-02T05:44:15;8.53;;;2.50;;
78686;SDS011;68002;52.310;6.990;2023-05-02T05:46:40;12.53;;;3.30;;
78686;SDS011;68002;52.310;6.990;2023-05-02T05:49:06;11.17;;;3.33;;
78686;SDS011;68002;52.310;6.990;2023-05-02T05:51:31;10.87;;;3.40;;
78686;SDS011;68002;52.310;6.990;2023-05-02T05:53:56;11.27;;;2.90;;
78686;SDS011;68002;52.310;6.990;2023-05-02T05:56:21;12.00;;;2.93;;
78686;SDS011;68002;52.310;6.990;2023-05-02T05:58:46;11.50;;;3.70;;
78686;SDS011;68002;52.310;6.990;2023-05-02T06:01:12;10.17;;;3.23;;
78686;SDS011;68002;52.310;6.990;2023-05-02T06:03:37;10.30;;;2.63;;
78686;SDS011;68002;52.310;6.990;2023-05-02T06:06:02;10.37;;;2.20;;
78686;SDS011;68002;52.310;6.990;2023-05-02T06:08:27;8.85;;;3.78;;
78686;SDS011;68002;52.310;6.990;2023-05-02T06:10:53;7.73;;;2.10;;
78686;SDS011;68002;52.310;6.990;2023-05-02T06:13:18;7.67;;;2.30;;
78686;SDS011;68002;52.310;6.990;2023-05-02T06:15:43;7.97;;;2.10;;
78686;SDS011;68002;52.310;6.990;2023-05-02T06:18:08;9.60;;;2.33;;
78686;SDS011;68002;52.310;6.990;2023-05-02T06:20:34;6.27;;;1.70;;
78686;SDS011;68002;52.310;6.990;2023-05-02T06:23:00;5.70;;;1.88;;
78686;SDS011;68002;52.310;6.990;2023-05-02T06:25:25;10.43;;;1.83;;
78686;SDS011;68002;52.310;6.990;2023-05-02T06:27:50;9.60;;;2.67;;
78686;SDS011;68002;52.310;6.990;2023-05-02T06:30:15;14.93;;;2.23;;
78686;SDS011;68002;52.310;6.990;2023-05-02T06:32:41;9.50;;;2.67;;
78686;SDS011;68002;52.310;6.990;2023-05-02T06:35:06;9.13;;;2.13;;
78686;SDS011;68002;52.310;6.990;2023-05-02T06:37:32;12.18;;;2.55;;
78686;SDS011;68002;52.310;6.990;2023-05-02T06:39:58;8.15;;;2.33;;
78686;SDS011;68002;52.310;6.990;2023-05-02T06:42:23;9.40;;;1.83;;
78686;SDS011;68002;52.310;6.990;2023-05-02T06:44:49;7.33;;;1.93;;
78686;SDS011;68002;52.310;6.990;2023-05-02T06:47:15;8.02;;;1.77;;
78686;SDS011;68002;52.310;6.990;2023-05-02T06:49:40;9.20;;;2.00;;
78686;SDS011;68002;52.310;6.990;2023-05-02T06:52:05;8.07;;;2.20;;
78686;SDS011;68002;52.310;6.990;2023-05-02T06:54:30;10.47;;;2.50;;
78686;SDS011;68002;52.310;6.990;2023-05-02T06:56:55;8.10;;;1.90;;
78686;SDS011;68002;52.310;6.990;2023-05-02T06:59:21;6.90;;;1.80;;
78686;SDS011;68002;52.310;6.990;2023-05-02T07:01:46;7.57;;;2.17;;
78686;SDS011;68002;52.310;6.990;2023-05-02T07:04:11;4.37;;;1.07;;
78686;SDS011;68002;52.310;6.990;2023-05-02T07:06:36;7.17;;;1.70;;
78686;SDS011;68002;52.310;6.990;2023-05-02T07:09:02;3.70;;;1.58;;
78686;SDS011;68002;52.310;6.990;2023-05-02T07:11:27;3.43;;;1.23;;
78686;SDS011;68002;52.310;6.990;2023-05-02T07:13:52;5.43;;;1.47;;
78686;SDS011;68002;52.310;6.990;2023-05-02T07:16:18;7.32;;;1.80;;
78686;SDS011;68002;52.310;6.990;2023-05-02T07:18:44;4.90;;;1.33;;
78686;SDS011;68002;52.310;6.990;2023-05-02T07:21:09;3.33;;;0.90;;
78686;SDS011;68002;52.310;6.990;2023-05-02T07:23:35;4.10;;;1.10;;
78686;SDS011;68002;52.310;6.990;2023-05-02T07:26:00;5.37;;;1.23;;
78686;SDS011;68002;52.310;6.990;2023-05-02T07:28:26;4.75;;;1.10;;
78686;SDS011;68002;52.310;6.990;2023-05-02T07:30:51;5.33;;;1.10;;
78686;SDS011;68002;52.310;6.990;2023-05-02T07:33:16;2.57;;;0.80;;
78686;SDS011;68002;52.310;6.990;2023-05-02T07:35:42;5.50;;;1.43;;
78686;SDS011;68002;52.310;6.990;2023-05-02T07:38:07;4.57;;;1.43;;
78686;SDS011;68002;52.310;6.990;2023-05-02T07:40:32;5.33;;;1.27;;
78686;SDS011;68002;52.310;6.990;2023-05-02T07:42:59;6.80;;;1.30;;
78686;SDS011;68002;52.310;6.990;2023-05-02T07:45:25;5.15;;;1.30;;
78686;SDS011;68002;52.310;6.990;2023-05-02T07:47:50;3.63;;;1.33;;
78686;SDS011;68002;52.310;6.990;2023-05-02T07:50:15;5.80;;;1.10;;
78686;SDS011;68002;52.310;6.990;2023-05-02T07:52:41;5.13;;;1.50;;
78686;SDS011;68002;52.310;6.990;2023-05-02T07:55:06;4.43;;;1.27;;
78686;SDS011;68002;52.310;6.990;2023-05-02T07:57:31;3.67;;;1.25;;
78686;SDS011;68002;52.310;6.990;2023-05-02T07:59:57;5.50;;;1.10;;
78686;SDS011;68002;52.310;6.990;2023-05-02T08:02:22;7.93;;;1.80;;
78686;SDS011;68002;52.310;6.990;2023-05-02T08:04:47;4.57;;;1.93;;
78686;SDS011;68002;52.310;6.990;2023-05-02T08:07:12;3.67;;;1.20;;
78686;SDS011;68002;52.310;6.990;2023-05-02T08:09:38;3.83;;;1.07;;
78686;SDS011;68002;52.310;6.990;2023-05-02T08:12:03;4.60;;;1.17;;
78686;SDS011;68002;52.310;6.990;2023-05-02T08:14:28;3.83;;;1.20;;
78686;SDS011;68002;52.310;6.990;2023-05-02T08:16:53;5.30;;;1.83;;
78686;SDS011;68002;52.310;6.990;2023-05-02T08:19:18;4.57;;;1.10;;
78686;SDS011;68002;52.310;6.990;2023-05-02T08:21:44;4.97;;;1.10;;
78686;SDS011;68002;52.310;6.990;2023-05-02T08:24:09;4.83;;;1.03;;
78686;SDS011;68002;52.310;6.990;2023-05-02T08:26:34;5.23;;;1.20;;
78686;SDS011;68002;52.310;6.990;2023-05-02T08:28:59;3.37;;;1.10;;
78686;SDS011;68002;52.310;6.990;2023-05-02T08:31:25;4.67;;;1.50;;
78686;SDS011;68002;52.310;6.990;2023-05-02T08:33:50;7.33;;;2.53;;
78686;SDS011;68002;52.310;6.990;2023-05-02T08:36:15;6.63;;;1.60;;
78686;SDS011;68002;52.310;6.990;2023-05-02T08:38:42;4.65;;;1.63;;
78686;SDS011;68002;52.310;6.990;2023-05-02T08:41:13;5.50;;;1.85;;
78686;SDS011;68002;52.310;6.990;2023-05-02T08:43:40;6.05;;;1.60;;
78686;SDS011;68002;52.310;6.990;2023-05-02T08:46:06;6.00;;;1.30;;
78686;SDS011;68002;52.310;6.990;2023-05-02T08:48:31;6.07;;;1.83;;
78686;SDS011;68002;52.310;6.990;2023-05-02T08:50:59;4.50;;;1.90;;
78686;SDS011;68002;52.310;6.990;2023-05-02T08:53:24;3.90;;;1.23;;
78686;SDS011;68002;52.310;6.990;2023-05-02T08:55:50;5.32;;;1.25;;
78686;SDS011;68002;52.310;6.990;2023-05-02T08:58:16;7.67;;;1.73;;
78686;SDS011;68002;52.310;6.990;2023-05-02T09:00:41;4.77;;;1.10;;
78686;SDS011;68002;52.310;6.990;2023-05-02T09:05:50;5.75;;;1.50;;
78686;SDS011;68002;52.310;6.990;2023-05-02T09:08:23;4.32;;;1.30;;
78686;SDS011;68002;52.310;6.990;2023-05-02T09:10:49;5.43;;;1.60;;
78686;SDS011;68002;52.310;6.990;2023-05-02T09:13:28;7.57;;;2.13;;
78686;SDS011;68002;52.310;6.990;2023-05-02T09:16:01;7.50;;;1.65;;
78686;SDS011;68002;52.310;6.990;2023-05-02T09:18:30;7.35;;;1.77;;
78686;SDS011;68002;52.310;6.990;2023-05-02T09:20:57;4.75;;;1.30;;
78686;SDS011;68002;52.310;6.990;2023-05-02T09:23:36;5.80;;;1.75;;
78686;SDS011;68002;52.310;6.990;2023-05-02T09:26:12;8.25;;;1.88;;
78686;SDS011;68002;52.310;6.990;2023-05-02T09:28:44;6.00;;;1.90;;
78686;SDS011;68002;52.310;6.990;2023-05-02T09:31:20;6.28;;;1.50;;
78686;SDS011;68002;52.310;6.990;2023-05-02T09:33:49;6.88;;;1.98;;
78686;SDS011;68002;52.310;6.990;2023-05-02T09:36:15;5.63;;;1.50;;
78686;SDS011;68002;52.310;6.990;2023-05-02T09:38:41;7.15;;;2.00;;
78686;SDS011;68002;52.310;6.990;2023-05-02T09:41:08;4.53;;;1.33;;
78686;SDS011;68002;52.310;6.990;2023-05-02T09:43:33;8.45;;;2.05;;
78686;SDS011;68002;52.310;6.990;2023-05-02T09:46:00;6.30;;;1.88;;
78686;SDS011;68002;52.310;6.990;2023-05-02T09:48:27;6.80;;;1.90;;
78686;SDS011;68002;52.310;6.990;2023-05-02T09:50:53;4.75;;;2.53;;
78686;SDS011;68002;52.310;6.990;2023-05-02T09:53:19;4.65;;;1.73;;
78686;SDS011;68002;52.310;6.990;2023-05-02T09:55:44;4.83;;;1.73;;
78686;SDS011;68002;52.310;6.990;2023-05-02T09:58:19;6.53;;;1.70;;
78686;SDS011;68002;52.310;6.990;2023-05-02T10:00:45;7.75;;;2.17;;
78686;SDS011;68002;52.310;6.990;2023-05-02T10:03:13;7.20;;;3.67;;
78686;SDS011;68002;52.310;6.990;2023-05-02T10:05:40;5.25;;;1.77;;
78686;SDS011;68002;52.310;6.990;2023-05-02T10:08:06;7.05;;;1.75;;
78686;SDS011;68002;52.310;6.990;2023-05-02T10:13:02;5.18;;;1.75;;
78686;SDS011;68002;52.310;6.990;2023-05-02T10:15:29;6.43;;;1.85;;
78686;SDS011;68002;52.310;6.990;2023-05-02T10:17:56;5.72;;;1.60;;
78686;SDS011;68002;52.310;6.990;2023-05-02T10:20:24;5.05;;;1.73;;
78686;SDS011;68002;52.310;6.990;2023-05-02T10:23:01;4.70;;;1.48;;
78686;SDS011;68002;52.310;6.990;2023-05-02T10:25:27;4.18;;;1.85;;
78686;SDS011;68002;52.310;6.990;2023-05-02T10:27:53;6.75;;;2.38;;
78686;SDS011;68002;52.310;6.990;2023-05-02T10:30:20;4.93;;;2.33;;
78686;SDS011;68002;52.310;6.990;2023-05-02T10:32:46;6.90;;;2.08;;
78686;SDS011;68002;52.310;6.990;2023-05-02T10:35:13;3.35;;;1.85;;
78686;SDS011;68002;52.310;6.990;2023-05-02T10:37:39;8.75;;;2.78;;
78686;SDS011;68002;52.310;6.990;2023-05-02T10:40:09;5.82;;;1.75;;
78686;SDS011;68002;52.310;6.990;2023-05-02T10:48:12;3.88;;;1.45;;
78686;SDS011;68002;52.310;6.990;2023-05-02T10:50:42;4.20;;;1.38;;
78686;SDS011;68002;52.310;6.990;2023-05-02T10:56:12;8.65;;;2.30;;
78686;SDS011;68002;52.310;6.990;2023-05-02T10:58:42;7.15;;;2.00;;
78686;SDS011;68002;52.310;6.990;2023-05-02T11:01:30;7.93;;;2.85;;
78686;SDS011;68002;52.310;6.990;2023-05-02T11:06:35;7.80;;;2.53;;
78686;SDS011;68002;52.310;6.990;2023-05-02T11:11:45;7.30;;;2.22;;
78686;SDS011;68002;52.310;6.990;2023-05-02T11:14:12;4.40;;;1.60;;
78686;SDS011;68002;52.310;6.990;2023-05-02T11:19:27;4.70;;;1.93;;
78686;SDS011;68002;52.310;6.990;2023-05-02T11:22:39;6.60;;;1.80;;
78686;SDS011;68002;52.310;6.990;2023-05-02T11:24:42;5.07;;;1.70;;
78686;SDS011;68002;52.310;6.990;2023-05-02T11:27:41;8.23;;;1.48;;
78686;SDS011;68002;52.310;6.990;2023-05-02T11:30:00;6.75;;;1.95;;
78686;SDS011;68002;52.310;6.990;2023-05-02T11:35:15;3.72;;;1.92;;
78686;SDS011;68002;52.310;6.990;2023-05-02T11:38:19;4.05;;;2.17;;
78686;SDS011;68002;52.310;6.990;2023-05-02T11:40:38;5.40;;;1.50;;
78686;SDS011;68002;52.310;6.990;2023-05-02T11:43:13;6.00;;;2.17;;
78686;SDS011;68002;52.310;6.990;2023-05-02T11:45:39;4.50;;;1.60;;
78686;SDS011;68002;52.310;6.990;2023-05-02T11:48:05;5.25;;;1.70;;
78686;SDS011;68002;52.310;6.990;2023-05-02T11:50:32;7.15;;;2.40;;
78686;SDS011;68002;52.310;6.990;2023-05-02T11:52:58;4.80;;;1.70;;
78686;SDS011;68002;52.310;6.990;2023-05-02T11:55:23;6.72;;;1.90;;
78686;SDS011;68002;52.310;6.990;2023-05-02T11:57:49;4.83;;;1.87;;
78686;SDS011;68002;52.310;6.990;2023-05-02T12:00:14;3.93;;;1.80;;
78686;SDS011;68002;52.310;6.990;2023-05-02T12:02:40;3.35;;;1.63;;
78686;SDS011;68002;52.310;6.990;2023-05-02T12:05:07;4.20;;;2.63;;
78686;SDS011;68002;52.310;6.990;2023-05-02T12:10:03;6.00;;;1.63;;
78686;SDS011;68002;52.310;6.990;2023-05-02T12:12:29;5.28;;;1.63;;
78686;SDS011;68002;52.310;6.990;2023-05-02T12:14:55;6.55;;;2.50;;
78686;SDS011;68002;52.310;6.990;2023-05-02T12:17:20;6.60;;;1.93;;
78686;SDS011;68002;52.310;6.990;2023-05-02T12:19:46;3.28;;;1.35;;
78686;SDS011;68002;52.310;6.990;2023-05-02T12:22:12;5.50;;;2.17;;
78686;SDS011;68002;52.310;6.990;2023-05-02T12:24:38;7.20;;;1.67;;
78686;SDS011;68002;52.310;6.990;2023-05-02T12:29:41;7.65;;;2.47;;
78686;SDS011;68002;52.310;6.990;2023-05-02T12:32:08;4.45;;;1.60;;
78686;SDS011;68002;52.310;6.990;2023-05-02T12:34:34;5.93;;;2.13;;
78686;SDS011;68002;52.310;6.990;2023-05-02T12:37:00;4.05;;;1.88;;
78686;SDS011;68002;52.310;6.990;2023-05-02T12:44:43;5.97;;;2.00;;
78686;SDS011;68002;52.310;6.990;2023-05-02T12:47:09;5.10;;;2.00;;
78686;SDS011;68002;52.310;6.990;2023-05-02T12:49:57;4.07;;;1.83;;
78686;SDS011;68002;52.310;6.990;2023-05-02T12:55:14;4.65;;;1.60;;
78686;SDS011;68002;52.310;6.990;2023-05-02T12:57:40;4.80;;;1.75;;
78686;SDS011;68002;52.310;6.990;2023-05-02T13:00:06;3.00;;;1.88;;
78686;SDS011;68002;52.310;6.990;2023-05-02T13:02:31;4.93;;;1.90;;
78686;SDS011;68002;52.310;6.990;2023-05-02T13:04:57;4.10;;;1.57;;
78686;SDS011;68002;52.310;6.990;2023-05-02T13:07:22;3.30;;;1.47;;
78686;SDS011;68002;52.310;6.990;2023-05-02T13:09:47;4.90;;;1.20;;
78686;SDS011;68002;52.310;6.990;2023-05-02T13:12:12;4.47;;;1.70;;
78686;SDS011;68002;52.310;6.990;2023-05-02T13:14:38;4.60;;;1.83;;
78686;SDS011;68002;52.310;6.990;2023-05-02T13:17:03;4.57;;;1.70;;
78686;SDS011;68002;52.310;6.990;2023-05-02T13:19:28;4.27;;;1.83;;
78686;SDS011;68002;52.310;6.990;2023-05-02T13:21:53;3.87;;;2.13;;
78686;SDS011;68002;52.310;6.990;2023-05-02T13:24:18;5.07;;;1.60;;
78686;SDS011;68002;52.310;6.990;2023-05-02T13:26:44;5.60;;;2.00;;
78686;SDS011;68002;52.310;6.990;2023-05-02T13:29:10;5.95;;;1.95;;
78686;SDS011;68002;52.310;6.990;2023-05-02T13:31:35;5.73;;;2.83;;
78686;SDS011;68002;52.310;6.990;2023-05-02T13:34:00;4.90;;;2.13;;
78686;SDS011;68002;52.310;6.990;2023-05-02T13:36:25;5.17;;;1.70;;
78686;SDS011;68002;52.310;6.990;2023-05-02T13:38:50;3.93;;;1.27;;
78686;SDS011;68002;52.310;6.990;2023-05-02T13:41:16;5.00;;;2.00;;
78686;SDS011;68002;52.310;6.990;2023-05-02T13:43:41;3.17;;;1.47;;
78686;SDS011;68002;52.310;6.990;2023-05-02T13:46:06;3.30;;;1.30;;
78686;SDS011;68002;52.310;6.990;2023-05-02T13:48:31;4.40;;;1.77;;
78686;SDS011;68002;52.310;6.990;2023-05-02T13:50:57;4.77;;;1.77;;
78686;SDS011;68002;52.310;6.990;2023-05-02T13:53:22;4.80;;;1.67;;
78686;SDS011;68002;52.310;6.990;2023-05-02T13:55:47;6.23;;;1.77;;
78686;SDS011;68002;52.310;6.990;2023-05-02T13:58:12;6.40;;;1.80;;
78686;SDS011;68002;52.310;6.990;2023-05-02T14:00:37;4.87;;;1.67;;
78686;SDS011;68002;52.310;6.990;2023-05-02T14:03:03;3.40;;;1.90;;
78686;SDS011;68002;52.310;6.990;2023-05-02T14:05:28;3.67;;;1.70;;
78686;SDS011;68002;52.310;6.990;2023-05-02T14:07:53;4.80;;;1.43;;
78686;SDS011;68002;52.310;6.990;2023-05-02T14:10:18;4.53;;;1.90;;
78686;SDS011;68002;52.310;6.990;2023-05-02T14:12:43;2.90;;;1.23;;
78686;SDS011;68002;52.310;6.990;2023-05-02T14:15:09;2.93;;;1.30;;
78686;SDS011;68002;52.310;6.990;2023-05-02T14:17:34;4.32;;;1.60;;
78686;SDS011;68002;52.310;6.990;2023-05-02T14:19:59;5.97;;;1.70;;
78686;SDS011;68002;52.310;6.990;2023-05-02T14:22:25;3.23;;;1.40;;
78686;SDS011;68002;52.310;6.990;2023-05-02T14:24:50;4.67;;;1.20;;
78686;SDS011;68002;52.310;6.990;2023-05-02T14:27:15;3.80;;;1.80;;
78686;SDS011;68002;52.310;6.990;2023-05-02T14:29:40;4.40;;;1.10;;
78686;SDS011;68002;52.310;6.990;2023-05-02T14:32:06;4.30;;;1.40;;
78686;SDS011;68002;52.310;6.990;2023-05-02T14:34:31;2.50;;;0.97;;
78686;SDS011;68002;52.310;6.990;2023-05-02T14:36:56;2.90;;;0.90;;
78686;SDS011;68002;52.310;6.990;2023-05-02T14:39:21;2.10;;;1.03;;
78686;SDS011;68002;52.310;6.990;2023-05-02T14:41:47;3.30;;;1.05;;
78686;SDS011;68002;52.310;6.990;2023-05-02T14:44:12;2.03;;;1.10;;
78686;SDS011;68002;52.310;6.990;2023-05-02T14:46:37;2.30;;;0.93;;
78686;SDS011;68002;52.310;6.990;2023-05-02T14:49:02;3.20;;;1.07;;
78686;SDS011;68002;52.310;6.990;2023-05-02T14:51:28;3.43;;;1.00;;
78686;SDS011;68002;52.310;6.990;2023-05-02T14:53:53;2.17;;;1.10;;
78686;SDS011;68002;52.310;6.990;2023-05-02T14:56:18;4.17;;;1.23;;
78686;SDS011;68002;52.310;6.990;2023-05-02T14:58:43;2.40;;;1.03;;
78686;SDS011;68002;52.310;6.990;2023-05-02T15:01:20;2.60;;;1.10;;
78686;SDS011;68002;52.310;6.990;2023-05-02T15:03:46;4.00;;;1.00;;
78686;SDS011;68002;52.310;6.990;2023-05-02T15:06:11;1.63;;;0.70;;
78686;SDS011;68002;52.310;6.990;2023-05-02T15:08:37;3.72;;;0.88;;
78686;SDS011;68002;52.310;6.990;2023-05-02T15:11:02;2.57;;;1.17;;
78686;SDS011;68002;52.310;6.990;2023-05-02T15:13:27;2.47;;;1.20;;
78686;SDS011;68002;52.310;6.990;2023-05-02T15:15:53;2.70;;;1.07;;
78686;SDS011;68002;52.310;6.990;2023-05-02T15:18:18;2.10;;;0.70;;
78686;SDS011;68002;52.310;6.990;2023-05-02T15:20:43;2.77;;;0.77;;
78686;SDS011;68002;52.310;6.990;2023-05-02T15:23:08;3.27;;;1.00;;
78686;SDS011;68002;52.310;6.990;2023-05-02T15:25:34;3.00;;;1.33;;
78686;SDS011;68002;52.310;6.990;2023-05-02T15:27:59;4.00;;;1.27;;
78686;SDS011;68002;52.310;6.990;2023-05-02T15:30:24;3.20;;;1.03;;
78686;SDS011;68002;52.310;6.990;2023-05-02T15:32:49;3.63;;;1.90;;
78686;SDS011;68002;52.310;6.990;2023-05-02T15:35:14;4.27;;;1.07;;
78686;SDS011;68002;52.310;6.990;2023-05-02T15:37:40;3.23;;;1.23;;
78686;SDS011;68002;52.310;6.990;2023-05-02T15:40:05;2.87;;;1.20;;